Date,TemperatureHighF,TemperatureAvgF,TemperatureLowF,DewpointHighF,DewpointAvgF,DewpointLowF,HumidityHigh,HumidityAvg,HumidityLow,PressureMaxIn,PressureMinIn,WindSpeedMaxMPH,WindSpeedAvgMPH,GustSpeedMaxMPH,PrecipitationSumIn
2013-8-1,79.0,64.8,50.8,61.2,54.2,46.8,90,70,49,30.04,29.88,7,0,7,0.00
2013-8-2,74.5,63.7,52.9,57.9,53.8,48.9,90,72,52,30.07,29.89,19,1,19,0.00
2013-8-3,74.7,62.1,50.2,58.6,52.1,46.5,92,72,48,30.24,30.07,17,1,17,0.00
2013-8-4,71.8,60.2,46.6,58.0,52.0,42.7,91,75,59,30.26,30.00,14,0,14,0.00
2013-8-5,79.7,66.0,56.7,66.9,58.9,52.3,91,79,59,30.01,29.83,12,0,21,0.00
2013-8-6,75.4,61.5,51.8,66.5,57.2,48.7,93,86,73,29.87,29.73,20,0,20,0.41
2013-8-7,73.4,62.3,52.4,58.7,54.7,50.4,96,78,55,30.02,29.84,17,0,17,0.00
2013-8-8,72.7,60.3,53.3,62.9,55.6,49.6,92,85,67,30.07,29.99,2,0,2,0.02
2013-8-9,70.4,59.5,48.4,57.3,52.7,46.1,95,79,61,30.14,30.01,20,1,20,0.00
2013-8-10,72.5,62.6,55.1,60.4,55.0,50.5,91,77,58,30.19,30.09,2,0,2,0.00
2013-8-11,77.2,63.8,50.8,63.2,56.2,47.5,93,78,59,30.11,30.02,5,0,5,0.00
2013-8-12,77.2,62.6,51.5,62.5,54.9,48.5,94,77,55,30.12,30.04,14,0,15,0.06
2013-8-13,71.3,59.4,47.5,58.6,51.2,44.3,93,75,55,30.23,30.12,17,0,17,0.00
2013-8-14,76.7,60.9,47.9,57.3,51.5,44.7,91,73,49,30.21,30.09,8,0,9,0.00
2013-8-15,74.9,61.5,48.8,60.4,52.4,45.2,91,74,52,30.14,30.08,8,0,8,0.00
2013-8-16,81.2,65.2,52.6,64.8,56.0,49.6,93,74,52,30.17,30.12,15,0,15,0.00
2013-8-17,81.4,66.2,53.3,64.3,57.0,49.8,92,74,53,30.17,30.07,17,2,18,0.00
2013-8-18,82.1,68.4,56.3,64.3,58.8,52.8,91,73,54,30.10,29.96,20,2,20,0.00
2013-8-19,85.3,73.5,64.8,72.3,65.6,58.0,86,76,63,29.98,29.88,8,0,8,0.00
2013-8-20,90.9,76.8,65.0,77.5,69.9,62.8,95,81,58,29.90,29.82,20,0,20,0.00
2013-8-21,83.5,74.8,65.2,72.5,66.2,57.1,95,76,52,30.07,29.81,16,0,16,0.00
2013-8-22,79.7,68.3,57.2,57.1,52.8,49.9,81,59,40,30.18,30.05,15,0,15,0.00
2013-8-23,85.0,67.7,51.1,62.7,55.9,47.0,89,68,47,30.16,30.01,17,0,17,0.00
2013-8-24,89.8,76.9,66.6,74.2,68.5,62.1,92,76,58,30.04,29.87,19,2,20,0.00
2013-8-25,92.5,81.2,72.5,77.7,73.6,69.3,91,78,61,29.97,29.90,17,1,17,0.00
2013-8-26,92.5,80.5,72.7,81.7,74.4,68.7,95,82,65,29.97,29.84,13,0,17,0.26
2013-8-27,85.3,74.9,69.3,75.5,70.7,66.5,98,87,68,29.96,29.83,13,0,13,0.00
2013-8-28,84.8,73.7,66.2,76.2,69.3,64.3,98,87,71,30.05,29.96,8,0,8,0.00
2013-8-29,87.5,75.5,67.3,78.8,71.4,65.2,98,87,72,30.03,29.83,15,1,15,0.00
2013-8-30,79.4,70.4,63.5,69.3,65.1,59.3,95,84,68,30.01,29.88,17,1,17,0.00
2013-8-31,86.9,70.9,61.0,72.2,64.3,58.5,93,81,57,29.94,29.70,17,0,17,0.08